sensor_id;sensor_type;location;lat;lon;timestamp;P1;durP1;ratioP1;P2;durP2;ratioP2
30824;SDS011;17550;45.486;12.222;2023-02-12T00:02:13;237.63;;;118.10;;
30824;SDS011;17550;45.486;12.222;2023-02-12T00:04:39;234.10;;;116.93;;
30824;SDS011;17550;45.486;12.222;2023-02-12T00:07:05;238.23;;;115.65;;
30824;SDS011;17550;45.486;12.222;2023-02-12T00:09:31;224.43;;;117.55;;
30824;SDS011;17550;45.486;12.222;2023-02-12T00:11:57;231.75;;;117.45;;
30824;SDS011;17550;45.486;12.222;2023-02-12T00:14:23;228.95;;;115.05;;
30824;SDS011;17550;45.486;12.222;2023-02-12T00:16:49;240.38;;;121.22;;
30824;SDS011;17550;45.486;12.222;2023-02-12T00:19:15;229.02;;;117.35;;
30824;SDS011;17550;45.486;12.222;2023-02-12T00:21:40;243.65;;;118.57;;
30824;SDS011;17550;45.486;12.222;2023-02-12T00:24:06;224.48;;;114.55;;
30824;SDS011;17550;45.486;12.222;2023-02-12T00:26:32;221.80;;;112.75;;
30824;SDS011;17550;45.486;12.222;2023-02-12T00:28:57;234.77;;;112.72;;
30824;SDS011;17550;45.486;12.222;2023-02-12T00:31:24;209.75;;;111.00;;
30824;SDS011;17550;45.486;12.222;2023-02-12T00:33:51;208.68;;;108.85;;
30824;SDS011;17550;45.486;12.222;2023-02-12T00:36:19;203.00;;;100.40;;
30824;SDS011;17550;45.486;12.222;2023-02-12T00:38:47;184.55;;;97.43;;
30824;SDS011;17550;45.486;12.222;2023-02-12T00:41:15;182.27;;;96.35;;
30824;SDS011;17550;45.486;12.222;2023-02-12T00:43:40;193.07;;;97.60;;
30824;SDS011;17550;45.486;12.222;2023-02-12T00:46:06;196.52;;;99.25;;
30824;SDS011;17550;45.486;12.222;2023-02-12T00:48:33;201.18;;;98.97;;
30824;SDS011;17550;45.486;12.222;2023-02-12T00:50:59;180.63;;;93.68;;
30824;SDS011;17550;45.486;12.222;2023-02-12T00:53:25;196.00;;;96.15;;
30824;SDS011;17550;45.486;12.222;2023-02-12T00:55:51;184.90;;;95.57;;
30824;SDS011;17550;45.486;12.222;2023-02-12T00:58:17;174.05;;;92.50;;
30824;SDS011;17550;45.486;12.222;2023-02-12T01:00:42;189.48;;;100.88;;
30824;SDS011;17550;45.486;12.222;2023-02-12T01:03:08;186.80;;;99.95;;
30824;SDS011;17550;45.486;12.222;2023-02-12T01:05:34;191.13;;;105.78;;
30824;SDS011;17550;45.486;12.222;2023-02-12T01:08:01;214.13;;;106.05;;
30824;SDS011;17550;45.486;12.222;2023-02-12T01:10:27;203.23;;;104.85;;
30824;SDS011;17550;45.486;12.222;2023-02-12T01:12:53;190.88;;;98.47;;
30824;SDS011;17550;45.486;12.222;2023-02-12T01:15:20;210.73;;;108.90;;
30824;SDS011;17550;45.486;12.222;2023-02-12T01:17:46;192.98;;;99.43;;
30824;SDS011;17550;45.486;12.222;2023-02-12T01:20:13;204.20;;;102.78;;
30824;SDS011;17550;45.486;12.222;2023-02-12T01:22:43;191.43;;;98.65;;
30824;SDS011;17550;45.486;12.222;2023-02-12T01:25:10;206.27;;;100.03;;
30824;SDS011;17550;45.486;12.222;2023-02-12T01:27:36;204.65;;;102.05;;
30824;SDS011;17550;45.486;12.222;2023-02-12T01:30:02;211.13;;;101.95;;
30824;SDS011;17550;45.486;12.222;2023-02-12T01:32:28;192.27;;;100.38;;
30824;SDS011;17550;45.486;12.222;2023-02-12T01:34:54;192.25;;;100.05;;
30824;SDS011;17550;45.486;12.222;2023-02-12T01:37:19;184.30;;;97.43;;
30824;SDS011;17550;45.486;12.222;2023-02-12T01:39:45;190.13;;;97.68;;
30824;SDS011;17550;45.486;12.222;2023-02-12T01:42:12;207.57;;;100.18;;
30824;SDS011;17550;45.486;12.222;2023-02-12T01:47:37;188.88;;;99.18;;
30824;SDS011;17550;45.486;12.222;2023-02-12T01:50:07;193.48;;;98.50;;
30824;SDS011;17550;45.486;12.222;2023-02-12T01:52:37;193.07;;;98.60;;
30824;SDS011;17550;45.486;12.222;2023-02-12T01:55:07;195.88;;;96.93;;
30824;SDS011;17550;45.486;12.222;2023-02-12T01:57:34;186.02;;;97.10;;
30824;SDS011;17550;45.486;12.222;2023-02-12T02:00:04;181.80;;;96.85;;
30824;SDS011;17550;45.486;12.222;2023-02-12T02:02:33;198.90;;;101.18;;
30824;SDS011;17550;45.486;12.222;2023-02-12T02:05:00;192.25;;;97.03;;
30824;SDS011;17550;45.486;12.222;2023-02-12T02:07:28;184.30;;;96.78;;
30824;SDS011;17550;45.486;12.222;2023-02-12T02:09:54;194.88;;;99.00;;
30824;SDS011;17550;45.486;12.222;2023-02-12T02:12:21;195.20;;;99.13;;
30824;SDS011;17550;45.486;12.222;2023-02-12T02:15:07;188.35;;;93.90;;
30824;SDS011;17550;45.486;12.222;2023-02-12T02:17:50;191.85;;;95.55;;
30824;SDS011;17550;45.486;12.222;2023-02-12T02:37:28;192.60;;;98.63;;
30824;SDS011;17550;45.486;12.222;2023-02-12T02:40:21;180.48;;;94.38;;
30824;SDS011;17550;45.486;12.222;2023-02-12T02:43:02;183.98;;;92.85;;
30824;SDS011;17550;45.486;12.222;2023-02-12T02:50:47;174.07;;;90.32;;
30824;SDS011;17550;45.486;12.222;2023-02-12T02:53:30;161.82;;;86.78;;
30824;SDS011;17550;45.486;12.222;2023-02-12T02:56:06;166.27;;;90.85;;
30824;SDS011;17550;45.486;12.222;2023-02-12T02:58:38;189.18;;;93.20;;
30824;SDS011;17550;45.486;12.222;2023-02-12T03:03:37;171.32;;;92.10;;
30824;SDS011;17550;45.486;12.222;2023-02-12T03:06:36;171.40;;;92.50;;
30824;SDS011;17550;45.486;12.222;2023-02-12T03:09:25;182.85;;;90.47;;
30824;SDS011;17550;45.486;12.222;2023-02-12T03:12:04;172.32;;;89.63;;
30824;SDS011;17550;45.486;12.222;2023-02-12T03:14:38;159.25;;;86.97;;
30824;SDS011;17550;45.486;12.222;2023-02-12T03:17:16;166.52;;;85.65;;
30824;SDS011;17550;45.486;12.222;2023-02-12T03:19:48;168.52;;;83.75;;
30824;SDS011;17550;45.486;12.222;2023-02-12T03:22:24;159.98;;;86.75;;
30824;SDS011;17550;45.486;12.222;2023-02-12T03:24:57;172.15;;;92.15;;
30824;SDS011;17550;45.486;12.222;2023-02-12T03:27:35;164.40;;;86.18;;
30824;SDS011;17550;45.486;12.222;2023-02-12T03:30:07;162.93;;;84.93;;
30824;SDS011;17550;45.486;12.222;2023-02-12T03:32:45;163.50;;;84.03;;
30824;SDS011;17550;45.486;12.222;2023-02-12T03:40:31;168.93;;;86.60;;
30824;SDS011;17550;45.486;12.222;2023-02-12T03:53:28;162.43;;;83.13;;
30824;SDS011;17550;45.486;12.222;2023-02-12T03:55:57;162.27;;;86.18;;
30824;SDS011;17550;45.486;12.222;2023-02-12T03:58:28;166.50;;;87.45;;
30824;SDS011;17550;45.486;12.222;2023-02-12T04:00:57;161.63;;;86.10;;
30824;SDS011;17550;45.486;12.222;2023-02-12T04:03:25;162.38;;;84.68;;
30824;SDS011;17550;45.486;12.222;2023-02-12T04:05:52;164.98;;;85.07;;
30824;SDS011;17550;45.486;12.222;2023-02-12T04:08:17;166.32;;;86.00;;
30824;SDS011;17550;45.486;12.222;2023-02-12T04:13:49;163.65;;;84.65;;
30824;SDS011;17550;45.486;12.222;2023-02-12T04:19:01;166.53;;;81.33;;
30824;SDS011;17550;45.486;12.222;2023-02-12T04:24:54;156.85;;;84.20;;
30824;SDS011;17550;45.486;12.222;2023-02-12T04:27:22;158.00;;;84.13;;
30824;SDS011;17550;45.486;12.222;2023-02-12T04:29:54;160.55;;;84.57;;
30824;SDS011;17550;45.486;12.222;2023-02-12T04:32:32;161.77;;;85.80;;
30824;SDS011;17550;45.486;12.222;2023-02-12T04:35:14;161.27;;;82.65;;
30824;SDS011;17550;45.486;12.222;2023-02-12T04:37:51;162.20;;;86.88;;
30824;SDS011;17550;45.486;12.222;2023-02-12T04:40:23;166.23;;;87.90;;
30824;SDS011;17550;45.486;12.222;2023-02-12T04:42:50;176.25;;;88.38;;
30824;SDS011;17550;45.486;12.222;2023-02-12T04:45:30;160.45;;;85.55;;
30824;SDS011;17550;45.486;12.222;2023-02-12T04:47:58;166.77;;;86.10;;
30824;SDS011;17550;45.486;12.222;2023-02-12T04:50:25;162.90;;;82.65;;
30824;SDS011;17550;45.486;12.222;2023-02-12T04:52:52;158.52;;;84.47;;
30824;SDS011;17550;45.486;12.222;2023-02-12T04:55:18;158.85;;;82.38;;
30824;SDS011;17550;45.486;12.222;2023-02-12T04:57:44;163.98;;;86.22;;
30824;SDS011;17550;45.486;12.222;2023-02-12T05:00:12;172.55;;;84.07;;
30824;SDS011;17550;45.486;12.222;2023-02-12T05:02:39;155.07;;;79.70;;
30824;SDS011;17550;45.486;12.222;2023-02-12T05:05:05;157.02;;;80.82;;
30824;SDS011;17550;45.486;12.222;2023-02-12T05:07:31;152.27;;;80.07;;
30824;SDS011;17550;45.486;12.222;2023-02-12T05:09:57;152.82;;;81.97;;
30824;SDS011;17550;45.486;12.222;2023-02-12T05:12:22;158.25;;;84.57;;
30824;SDS011;17550;45.486;12.222;2023-02-12T05:14:48;159.30;;;85.03;;
30824;SDS011;17550;45.486;12.222;2023-02-12T05:17:14;166.18;;;80.22;;
30824;SDS011;17550;45.486;12.222;2023-02-12T05:19:39;170.95;;;85.72;;
30824;SDS011;17550;45.486;12.222;2023-02-12T05:22:05;174.57;;;89.40;;
30824;SDS011;17550;45.486;12.222;2023-02-12T05:24:30;163.27;;;83.15;;
30824;SDS011;17550;45.486;12.222;2023-02-12T05:26:56;167.85;;;82.72;;
30824;SDS011;17550;45.486;12.222;2023-02-12T05:29:22;167.30;;;83.30;;
30824;SDS011;17550;45.486;12.222;2023-02-12T05:31:47;162.60;;;86.25;;
30824;SDS011;17550;45.486;12.222;2023-02-12T05:34:13;169.13;;;86.30;;
30824;SDS011;17550;45.486;12.222;2023-02-12T05:36:39;163.48;;;85.22;;
30824;SDS011;17550;45.486;12.222;2023-02-12T05:39:05;161.25;;;83.75;;
30824;SDS011;17550;45.486;12.222;2023-02-12T05:41:31;155.80;;;81.28;;
30824;SDS011;17550;45.486;12.222;2023-02-12T05:43:59;163.10;;;83.90;;
30824;SDS011;17550;45.486;12.222;2023-02-12T05:46:25;174.88;;;89.60;;
30824;SDS011;17550;45.486;12.222;2023-02-12T05:48:51;177.25;;;88.63;;
30824;SDS011;17550;45.486;12.222;2023-02-12T05:51:19;174.13;;;91.25;;
30824;SDS011;17550;45.486;12.222;2023-02-12T05:53:47;187.13;;;93.45;;
30824;SDS011;17550;45.486;12.222;2023-02-12T05:56:24;194.27;;;97.32;;
30824;SDS011;17550;45.486;12.222;2023-02-12T05:58:56;176.10;;;92.88;;
30824;SDS011;17550;45.486;12.222;2023-02-12T06:01:31;181.38;;;97.38;;
30824;SDS011;17550;45.486;12.222;2023-02-12T06:03:59;171.15;;;89.95;;
30824;SDS011;17550;45.486;12.222;2023-02-12T06:06:26;178.15;;;90.95;;
30824;SDS011;17550;45.486;12.222;2023-02-12T06:08:52;177.45;;;92.88;;
30824;SDS011;17550;45.486;12.222;2023-02-12T06:11:18;179.70;;;93.10;;
30824;SDS011;17550;45.486;12.222;2023-02-12T06:13:45;172.98;;;88.57;;
30824;SDS011;17550;45.486;12.222;2023-02-12T06:16:29;176.07;;;89.40;;
30824;SDS011;17550;45.486;12.222;2023-02-12T06:18:56;186.15;;;94.97;;
30824;SDS011;17550;45.486;12.222;2023-02-12T06:21:23;183.85;;;94.20;;
30824;SDS011;17550;45.486;12.222;2023-02-12T06:23:49;178.50;;;89.80;;
30824;SDS011;17550;45.486;12.222;2023-02-12T06:26:16;165.75;;;86.60;;
30824;SDS011;17550;45.486;12.222;2023-02-12T06:28:43;172.00;;;91.60;;
30824;SDS011;17550;45.486;12.222;2023-02-12T06:31:22;177.38;;;92.68;;
30824;SDS011;17550;45.486;12.222;2023-02-12T06:33:52;170.00;;;92.25;;
30824;SDS011;17550;45.486;12.222;2023-02-12T06:36:19;168.68;;;88.40;;
30824;SDS011;17550;45.486;12.222;2023-02-12T06:38:46;182.20;;;96.43;;
30824;SDS011;17550;45.486;12.222;2023-02-12T06:41:12;180.05;;;94.75;;
30824;SDS011;17550;45.486;12.222;2023-02-12T06:43:38;184.02;;;99.18;;
30824;SDS011;17550;45.486;12.222;2023-02-12T06:46:04;172.27;;;90.80;;
30824;SDS011;17550;45.486;12.222;2023-02-12T06:48:30;171.82;;;89.78;;
30824;SDS011;17550;45.486;12.222;2023-02-12T06:50:56;172.48;;;92.28;;
30824;SDS011;17550;45.486;12.222;2023-02-12T06:53:28;177.82;;;93.70;;
30824;SDS011;17550;45.486;12.222;2023-02-12T06:55:53;178.50;;;93.50;;
30824;SDS011;17550;45.486;12.222;2023-02-12T06:58:19;182.65;;;96.32;;
30824;SDS011;17550;45.486;12.222;2023-02-12T07:00:44;185.48;;;96.43;;
30824;SDS011;17550;45.486;12.222;2023-02-12T07:03:10;183.02;;;97.97;;
30824;SDS011;17550;45.486;12.222;2023-02-12T07:05:38;177.85;;;96.10;;
30824;SDS011;17550;45.486;12.222;2023-02-12T07:08:04;190.40;;;102.30;;
30824;SDS011;17550;45.486;12.222;2023-02-12T07:10:29;192.18;;;103.35;;
30824;SDS011;17550;45.486;12.222;2023-02-12T07:12:55;191.40;;;102.70;;
30824;SDS011;17550;45.486;12.222;2023-02-12T07:15:21;190.38;;;103.10;;
30824;SDS011;17550;45.486;12.222;2023-02-12T07:17:49;210.45;;;108.00;;
30824;SDS011;17550;45.486;12.222;2023-02-12T07:20:15;201.43;;;105.22;;
30824;SDS011;17550;45.486;12.222;2023-02-12T07:22:41;196.68;;;102.43;;
30824;SDS011;17550;45.486;12.222;2023-02-12T07:25:07;192.20;;;103.32;;
30824;SDS011;17550;45.486;12.222;2023-02-12T07:27:34;194.43;;;100.50;;
30824;SDS011;17550;45.486;12.222;2023-02-12T07:30:01;197.75;;;104.60;;
30824;SDS011;17550;45.486;12.222;2023-02-12T07:32:28;198.25;;;103.57;;
30824;SDS011;17550;45.486;12.222;2023-02-12T07:34:55;185.02;;;98.90;;
30824;SDS011;17550;45.486;12.222;2023-02-12T07:37:21;188.00;;;102.80;;
30824;SDS011;17550;45.486;12.222;2023-02-12T07:39:47;191.13;;;103.55;;
30824;SDS011;17550;45.486;12.222;2023-02-12T07:42:13;199.95;;;107.32;;
30824;SDS011;17550;45.486;12.222;2023-02-12T07:44:39;188.48;;;101.15;;
30824;SDS011;17550;45.486;12.222;2023-02-12T07:47:05;186.45;;;100.85;;
30824;SDS011;17550;45.486;12.222;2023-02-12T07:49:30;189.23;;;102.00;;
30824;SDS011;17550;45.486;12.222;2023-02-12T07:51:56;187.48;;;98.93;;
30824;SDS011;17550;45.486;12.222;2023-02-12T07:54:22;177.57;;;97.28;;
30824;SDS011;17550;45.486;12.222;2023-02-12T07:56:47;170.80;;;92.97;;
30824;SDS011;17550;45.486;12.222;2023-02-12T07:59:14;172.80;;;95.78;;
30824;SDS011;17550;45.486;12.222;2023-02-12T08:01:44;175.20;;;98.38;;
30824;SDS011;17550;45.486;12.222;2023-02-12T08:04:12;171.40;;;95.25;;
30824;SDS011;17550;45.486;12.222;2023-02-12T08:06:43;166.20;;;93.25;;
30824;SDS011;17550;45.486;12.222;2023-02-12T08:09:13;173.80;;;96.88;;
30824;SDS011;17550;45.486;12.222;2023-02-12T08:11:43;162.68;;;90.82;;
30824;SDS011;17550;45.486;12.222;2023-02-12T08:14:12;157.88;;;88.88;;
30824;SDS011;17550;45.486;12.222;2023-02-12T08:16:39;156.45;;;87.78;;
30824;SDS011;17550;45.486;12.222;2023-02-12T08:19:06;158.18;;;87.00;;
30824;SDS011;17550;45.486;12.222;2023-02-12T08:21:32;156.15;;;86.90;;
30824;SDS011;17550;45.486;12.222;2023-02-12T08:23:58;149.95;;;86.25;;
30824;SDS011;17550;45.486;12.222;2023-02-12T08:26:28;154.23;;;86.43;;
30824;SDS011;17550;45.486;12.222;2023-02-12T08:28:57;150.55;;;85.50;;
30824;SDS011;17550;45.486;12.222;2023-02-12T08:31:28;148.48;;;84.93;;
30824;SDS011;17550;45.486;12.222;2023-02-12T08:33:55;154.32;;;85.40;;
30824;SDS011;17550;45.486;12.222;2023-02-12T08:36:22;156.13;;;86.32;;
30824;SDS011;17550;45.486;12.222;2023-02-12T08:38:50;146.07;;;83.35;;
30824;SDS011;17550;45.486;12.222;2023-02-12T08:41:18;138.77;;;81.03;;
30824;SDS011;17550;45.486;12.222;2023-02-12T08:43:45;142.82;;;84.78;;
30824;SDS011;17550;45.486;12.222;2023-02-12T08:46:12;149.85;;;86.38;;
30824;SDS011;17550;45.486;12.222;2023-02-12T08:48:46;148.07;;;85.82;;
30824;SDS011;17550;45.486;12.222;2023-02-12T08:51:16;141.07;;;83.22;;
30824;SDS011;17550;45.486;12.222;2023-02-12T08:53:45;144.75;;;83.75;;
30824;SDS011;17550;45.486;12.222;2023-02-12T08:56:13;147.27;;;87.22;;
30824;SDS011;17550;45.486;12.222;2023-02-12T08:58:41;155.23;;;90.18;;
30824;SDS011;17550;45.486;12.222;2023-02-12T09:01:14;143.82;;;87.40;;
30824;SDS011;17550;45.486;12.222;2023-02-12T09:03:41;152.65;;;87.18;;
30824;SDS011;17550;45.486;12.222;2023-02-12T09:06:07;153.85;;;87.85;;
30824;SDS011;17550;45.486;12.222;2023-02-12T09:08:33;154.88;;;90.60;;
30824;SDS011;17550;45.486;12.222;2023-02-12T09:11:04;146.15;;;88.07;;
30824;SDS011;17550;45.486;12.222;2023-02-12T09:13:31;151.43;;;88.93;;
30824;SDS011;17550;45.486;12.222;2023-02-12T09:15:59;145.60;;;86.03;;
30824;SDS011;17550;45.486;12.222;2023-02-12T09:18:26;144.02;;;84.25;;
30824;SDS011;17550;45.486;12.222;2023-02-12T09:20:52;138.15;;;82.55;;
30824;SDS011;17550;45.486;12.222;2023-02-12T09:23:18;150.88;;;85.65;;
30824;SDS011;17550;45.486;12.222;2023-02-12T09:25:44;147.07;;;86.53;;
30824;SDS011;17550;45.486;12.222;2023-02-12T09:28:11;139.32;;;80.88;;
30824;SDS011;17550;45.486;12.222;2023-02-12T09:30:38;138.60;;;81.70;;
30824;SDS011;17550;45.486;12.222;2023-02-12T09:33:05;135.77;;;80.57;;
30824;SDS011;17550;45.486;12.222;2023-02-12T09:35:34;138.25;;;82.72;;
30824;SDS011;17550;45.486;12.222;2023-02-12T09:38:01;145.07;;;80.45;;
30824;SDS011;17550;45.486;12.222;2023-02-12T09:46:13;140.85;;;82.43;;
30824;SDS011;17550;45.486;12.222;2023-02-12T09:49:31;134.85;;;82.82;;
30824;SDS011;17550;45.486;12.222;2023-02-12T09:51:40;139.90;;;83.90;;
30824;SDS011;17550;45.486;12.222;2023-02-12T09:54:13;138.23;;;79.18;;
30824;SDS011;17550;45.486;12.222;2023-02-12T09:56:42;110.88;;;68.30;;
30824;SDS011;17550;45.486;12.222;2023-02-12T09:59:12;145.60;;;86.28;;
30824;SDS011;17550;45.486;12.222;2023-02-12T10:01:48;129.15;;;77.93;;
30824;SDS011;17550;45.486;12.222;2023-02-12T10:04:14;132.90;;;78.05;;
30824;SDS011;17550;45.486;12.222;2023-02-12T10:06:45;118.13;;;75.05;;
30824;SDS011;17550;45.486;12.222;2023-02-12T10:09:33;121.47;;;77.38;;
30824;SDS011;17550;45.486;12.222;2023-02-12T10:12:18;105.47;;;63.88;;
30824;SDS011;17550;45.486;12.222;2023-02-12T10:20:19;118.75;;;70.70;;
30824;SDS011;17550;45.486;12.222;2023-02-12T10:25:47;107.45;;;68.68;;
30824;SDS011;17550;45.486;12.222;2023-02-12T10:28:18;114.78;;;71.30;;
30824;SDS011;17550;45.486;12.222;2023-02-12T10:31:04;125.22;;;72.95;;
30824;SDS011;17550;45.486;12.222;2023-02-12T10:33:48;122.55;;;72.00;;
30824;SDS011;17550;45.486;12.222;2023-02-12T10:39:02;110.38;;;68.63;;
30824;SDS011;17550;45.486;12.222;2023-02-12T10:41:38;107.95;;;66.18;;
30824;SDS011;17550;45.486;12.222;2023-02-12T10:44:28;102.30;;;63.17;;
30824;SDS011;17550;45.486;12.222;2023-02-12T10:46:55;106.82;;;65.30;;
30824;SDS011;17550;45.486;12.222;2023-02-12T10:49:21;112.65;;;65.65;;
30824;SDS011;17550;45.486;12.222;2023-02-12T10:59:38;102.28;;;61.63;;
30824;SDS011;17550;45.486;12.222;2023-02-12T11:02:16;103.20;;;63.47;;
30824;SDS011;17550;45.486;12.222;2023-02-12T11:04:47;110.15;;;65.93;;
30824;SDS011;17550;45.486;12.222;2023-02-12T11:07:13;100.65;;;58.47;;
30824;SDS011;17550;45.486;12.222;2023-02-12T11:09:40;99.35;;;62.08;;
30824;SDS011;17550;45.486;12.222;2023-02-12T11:14:52;100.20;;;62.42;;
30824;SDS011;17550;45.486;12.222;2023-02-12T11:17:38;107.57;;;66.20;;
30824;SDS011;17550;45.486;12.222;2023-02-12T11:23:02;99.57;;;59.88;;
30824;SDS011;17550;45.486;12.222;2023-02-12T11:25:31;99.95;;;59.45;;
30824;SDS011;17550;45.486;12.222;2023-02-12T11:28:03;93.88;;;56.17;;
30824;SDS011;17550;45.486;12.222;2023-02-12T11:33:35;94.40;;;57.35;;
30824;SDS011;17550;45.486;12.222;2023-02-12T11:36:15;93.90;;;57.15;;
30824;SDS011;17550;45.486;12.222;2023-02-12T11:38:48;96.80;;;56.15;;
30824;SDS011;17550;45.486;12.222;2023-02-12T11:44:00;95.50;;;54.80;;
30824;SDS011;17550;45.486;12.222;2023-02-12T11:46:33;86.50;;;52.90;;
30824;SDS011;17550;45.486;12.222;2023-02-12T11:48:59;83.60;;;50.17;;
30824;SDS011;17550;45.486;12.222;2023-02-12T11:51:27;83.50;;;51.78;;
30824;SDS011;17550;45.486;12.222;2023-02-12T11:53:56;83.97;;;50.78;;
30824;SDS011;17550;45.486;12.222;2023-02-12T11:56:25;76.10;;;49.45;;
30824;SDS011;17550;45.486;12.222;2023-02-12T11:59:10;87.22;;;51.97;;
30824;SDS011;17550;45.486;12.222;2023-02-12T12:01:58;81.53;;;51.53;;
30824;SDS011;17550;45.486;12.222;2023-02-12T12:04:30;82.93;;;51.22;;
30824;SDS011;17550;45.486;12.222;2023-02-12T12:12:15;78.68;;;49.72;;
30824;SDS011;17550;45.486;12.222;2023-02-12T12:14:53;77.28;;;48.95;;
30824;SDS011;17550;45.486;12.222;2023-02-12T12:20:34;76.25;;;48.13;;
30824;SDS011;17550;45.486;12.222;2023-02-12T12:23:08;76.53;;;47.90;;
30824;SDS011;17550;45.486;12.222;2023-02-12T12:25:41;75.47;;;48.70;;
30824;SDS011;17550;45.486;12.222;2023-02-12T12:31:12;72.40;;;46.22;;
30824;SDS011;17550;45.486;12.222;2023-02-12T12:36:46;85.78;;;50.40;;
30824;SDS011;17550;45.486;12.222;2023-02-12T12:59:19;74.18;;;44.15;;
30824;SDS011;17550;45.486;12.222;2023-02-12T13:04:40;66.22;;;41.55;;
30824;SDS011;17550;45.486;12.222;2023-02-12T13:18:44;60.20;;;36.78;;
30824;SDS011;17550;45.486;12.222;2023-02-12T13:24:35;48.03;;;29.48;;
30824;SDS011;17550;45.486;12.222;2023-02-12T13:27:29;43.90;;;24.27;;
30824;SDS011;17550;45.486;12.222;2023-02-12T13:32:47;35.08;;;22.00;;
30824;SDS011;17550;45.486;12.222;2023-02-12T13:35:14;32.95;;;20.45;;
30824;SDS011;17550;45.486;12.222;2023-02-12T13:37:50;35.95;;;21.67;;
30824;SDS011;17550;45.486;12.222;2023-02-12T13:40:18;33.80;;;19.40;;
30824;SDS011;17550;45.486;12.222;2023-02-12T13:42:54;32.38;;;19.40;;
30824;SDS011;17550;45.486;12.222;2023-02-12T13:45:43;30.90;;;19.83;;
30824;SDS011;17550;45.486;12.222;2023-02-12T13:53:30;32.05;;;20.45;;
30824;SDS011;17550;45.486;12.222;2023-02-12T13:58:52;31.83;;;19.23;;
30824;SDS011;17550;45.486;12.222;2023-02-12T14:01:34;30.98;;;19.08;;
30824;SDS011;17550;45.486;12.222;2023-02-12T14:06:56;31.33;;;18.88;;
30824;SDS011;17550;45.486;12.222;2023-02-12T14:12:35;35.33;;;21.73;;
30824;SDS011;17550;45.486;12.222;2023-02-12T14:15:10;32.83;;;20.52;;
30824;SDS011;17550;45.486;12.222;2023-02-12T14:28:33;43.25;;;22.77;;
30824;SDS011;17550;45.486;12.222;2023-02-12T14:33:44;36.72;;;22.90;;
30824;SDS011;17550;45.486;12.222;2023-02-12T14:38:57;44.20;;;22.45;;
30824;SDS011;17550;45.486;12.222;2023-02-12T14:45:02;38.15;;;23.25;;
30824;SDS011;17550;45.486;12.222;2023-02-12T14:47:15;34.08;;;22.60;;
30824;SDS011;17550;45.486;12.222;2023-02-12T14:50:00;38.97;;;22.38;;
30824;SDS011;17550;45.486;12.222;2023-02-12T14:52:38;33.07;;;19.57;;
30824;SDS011;17550;45.486;12.222;2023-02-12T14:55:17;35.88;;;21.88;;
30824;SDS011;17550;45.486;12.222;2023-02-12T14:57:44;39.60;;;22.98;;
30824;SDS011;17550;45.486;12.222;2023-02-12T15:02:53;39.67;;;21.58;;
30824;SDS011;17550;45.486;12.222;2023-02-12T15:05:53;35.00;;;21.02;;
30824;SDS011;17550;45.486;12.222;2023-02-12T15:08:43;37.03;;;21.80;;
30824;SDS011;17550;45.486;12.222;2023-02-12T15:16:26;36.72;;;21.52;;
30824;SDS011;17550;45.486;12.222;2023-02-12T15:18:59;37.97;;;22.42;;
30824;SDS011;17550;45.486;12.222;2023-02-12T15:21:46;39.22;;;22.58;;
30824;SDS011;17550;45.486;12.222;2023-02-12T15:24:13;36.25;;;21.92;;
30824;SDS011;17550;45.486;12.222;2023-02-12T15:26:47;39.20;;;22.52;;
30824;SDS011;17550;45.486;12.222;2023-02-12T15:29:25;37.08;;;22.90;;
30824;SDS011;17550;45.486;12.222;2023-02-12T15:32:00;37.72;;;22.92;;
30824;SDS011;17550;45.486;12.222;2023-02-12T15:34:32;36.67;;;21.98;;
30824;SDS011;17550;45.486;12.222;2023-02-12T15:37:03;39.67;;;22.85;;
30824;SDS011;17550;45.486;12.222;2023-02-12T15:39:44;38.95;;;22.40;;
30824;SDS011;17550;45.486;12.222;2023-02-12T15:45:00;44.90;;;25.55;;
30824;SDS011;17550;45.486;12.222;2023-02-12T15:47:41;40.58;;;22.98;;
30824;SDS011;17550;45.486;12.222;2023-02-12T15:50:12;40.47;;;22.70;;
30824;SDS011;17550;45.486;12.222;2023-02-12T15:52:40;39.80;;;22.83;;
30824;SDS011;17550;45.486;12.222;2023-02-12T15:55:13;43.53;;;24.40;;
30824;SDS011;17550;45.486;12.222;2023-02-12T15:57:49;41.47;;;23.53;;
30824;SDS011;17550;45.486;12.222;2023-02-12T16:05:56;43.17;;;24.52;;
30824;SDS011;17550;45.486;12.222;2023-02-12T16:08:30;44.13;;;25.52;;
30824;SDS011;17550;45.486;12.222;2023-02-12T16:10:58;46.45;;;23.92;;
30824;SDS011;17550;45.486;12.222;2023-02-12T16:13:27;48.15;;;26.00;;
30824;SDS011;17550;45.486;12.222;2023-02-12T16:16:38;46.03;;;25.73;;
30824;SDS011;17550;45.486;12.222;2023-02-12T16:21:41;45.15;;;25.95;;
30824;SDS011;17550;45.486;12.222;2023-02-12T16:26:52;50.45;;;26.40;;
30824;SDS011;17550;45.486;12.222;2023-02-12T16:29:18;44.13;;;24.02;;
30824;SDS011;17550;45.486;12.222;2023-02-12T16:31:52;52.35;;;26.50;;
30824;SDS011;17550;45.486;12.222;2023-02-12T16:34:26;46.28;;;25.33;;
30824;SDS011;17550;45.486;12.222;2023-02-12T16:36:59;44.35;;;25.42;;
30824;SDS011;17550;45.486;12.222;2023-02-12T16:42:18;59.50;;;26.70;;
30824;SDS011;17550;45.486;12.222;2023-02-12T16:44:48;51.22;;;27.35;;
30824;SDS011;17550;45.486;12.222;2023-02-12T16:47:21;55.45;;;30.00;;
30824;SDS011;17550;45.486;12.222;2023-02-12T16:49:55;69.95;;;34.20;;
30824;SDS011;17550;45.486;12.222;2023-02-12T16:52:31;75.82;;;36.97;;
30824;SDS011;17550;45.486;12.222;2023-02-12T16:55:00;73.07;;;37.80;;
30824;SDS011;17550;45.486;12.222;2023-02-12T16:57:26;66.43;;;34.90;;
30824;SDS011;17550;45.486;12.222;2023-02-12T16:59:52;67.97;;;33.63;;
30824;SDS011;17550;45.486;12.222;2023-02-12T17:02:18;70.70;;;35.60;;
30824;SDS011;17550;45.486;12.222;2023-02-12T17:04:44;70.28;;;35.33;;
30824;SDS011;17550;45.486;12.222;2023-02-12T17:07:20;66.00;;;34.03;;
30824;SDS011;17550;45.486;12.222;2023-02-12T17:09:47;65.35;;;34.13;;
30824;SDS011;17550;45.486;12.222;2023-02-12T17:12:14;64.30;;;33.38;;
30824;SDS011;17550;45.486;12.222;2023-02-12T17:14:40;63.38;;;32.75;;
30824;SDS011;17550;45.486;12.222;2023-02-12T17:17:06;57.63;;;31.27;;
30824;SDS011;17550;45.486;12.222;2023-02-12T17:19:32;61.67;;;32.55;;
30824;SDS011;17550;45.486;12.222;2023-02-12T17:21:58;84.80;;;40.40;;
30824;SDS011;17550;45.486;12.222;2023-02-12T17:24:27;92.30;;;46.80;;
30824;SDS011;17550;45.486;12.222;2023-02-12T17:26:54;84.50;;;44.00;;
30824;SDS011;17550;45.486;12.222;2023-02-12T17:29:22;82.53;;;43.42;;
30824;SDS011;17550;45.486;12.222;2023-02-12T17:31:49;87.50;;;47.63;;
30824;SDS011;17550;45.486;12.222;2023-02-12T17:34:17;89.15;;;48.13;;
30824;SDS011;17550;45.486;12.222;2023-02-12T17:36:43;90.15;;;47.15;;
30824;SDS011;17550;45.486;12.222;2023-02-12T17:39:10;98.53;;;52.45;;